createdAt,value
2023-03-23T15:59:14.269Z,97173.91
2023-03-23T16:01:43.890Z,97162.81
2023-03-23T16:04:14.910Z,97165.25
2023-03-23T16:06:43.462Z,97157.41
2023-03-23T16:09:16.442Z,97165.91
2023-03-23T16:11:46.628Z,97155.41
2023-03-23T16:14:15.134Z,97156.00
2023-03-23T16:16:49.684Z,97146.13
2023-03-23T16:19:20.800Z,97137.94
2023-03-23T16:21:49.282Z,97129.94
2023-03-23T16:24:17.335Z,97126.97
2023-03-23T16:26:47.456Z,97137.78
2023-03-23T16:29:29.049Z,97124.34
2023-03-23T16:32:06.666Z,97122.03
2023-03-23T16:34:35.887Z,97104.78
2023-03-23T16:37:04.276Z,97102.91
2023-03-23T16:39:32.366Z,97101.78
2023-03-23T16:42:02.266Z,97104.97
2023-03-23T16:44:31.337Z,97094.72
2023-03-23T16:46:59.927Z,97094.22
2023-03-23T16:49:28.288Z,97087.03
2023-03-23T16:51:57.726Z,97077.34
2023-03-23T16:54:26.193Z,97078.78
2023-03-23T16:56:55.341Z,97071.91
2023-03-23T16:59:25.877Z,97068.81
2023-03-23T17:01:55.153Z,97069.31
2023-03-23T17:04:23.782Z,97064.50
2023-03-23T17:06:52.028Z,97058.88
2023-03-23T17:09:20.590Z,97058.84
2023-03-23T17:11:48.960Z,97069.03
2023-03-23T17:14:17.388Z,97069.34
2023-03-23T17:16:50.738Z,97080.69
2023-03-23T17:19:19.119Z,97073.97
2023-03-23T17:21:47.631Z,97078.59
2023-03-23T17:24:16.509Z,97084.84
2023-03-23T17:26:45.583Z,97072.00
2023-03-23T17:29:14.269Z,97076.50
2023-03-23T17:31:43.719Z,97082.19
2023-03-23T17:34:13.967Z,97102.03
2023-03-23T17:36:42.414Z,97101.50
2023-03-23T17:39:11.971Z,97098.19
2023-03-23T17:41:40.693Z,97123.59
2023-03-23T17:44:09.546Z,97208.78
2023-03-23T17:46:38.518Z,97209.16
2023-03-23T17:49:07.982Z,97166.94
2023-03-23T17:51:38.243Z,97159.13
2023-03-23T17:54:06.977Z,97140.19
2023-03-23T17:56:36.038Z,97132.00
2023-03-23T17:59:04.936Z,97124.81
2023-03-23T18:01:33.269Z,97108.13
2023-03-23T18:04:02.120Z,97103.69
2023-03-23T18:06:30.978Z,97096.81
2023-03-23T18:09:01.337Z,97092.94
2023-03-23T18:11:29.854Z,97103.38
2023-03-23T18:13:58.242Z,97122.19
2023-03-23T18:16:26.498Z,97117.72
2023-03-23T18:18:54.640Z,97128.94
2023-03-23T18:21:23.318Z,97130.00
2023-03-23T18:23:59.350Z,97137.34
2023-03-23T18:26:30.839Z,97132.28
2023-03-23T18:28:59.162Z,97124.47
2023-03-23T18:31:27.343Z,97125.28
2023-03-23T18:33:56.921Z,97121.22
2023-03-23T18:36:27.520Z,97136.66
2023-03-23T18:38:58.034Z,97137.59
2023-03-23T18:41:27.446Z,97145.19
2023-03-23T18:43:57.983Z,97135.50
2023-03-23T18:46:27.641Z,97150.47
2023-03-23T18:48:56.313Z,97166.59
2023-03-23T18:51:26.206Z,97185.19
2023-03-23T18:53:54.937Z,97199.44
2023-03-23T18:56:23.911Z,97211.03
2023-03-23T18:58:54.355Z,97214.84
2023-03-23T19:01:24.312Z,97217.69
2023-03-23T19:03:54.008Z,97213.09
2023-03-23T19:06:24.858Z,97214.44
2023-03-23T19:08:54.906Z,97205.81
2023-03-23T19:11:26.326Z,97208.47
2023-03-23T19:14:02.563Z,97215.56
2023-03-23T19:16:35.910Z,97208.13
2023-03-23T19:19:06.237Z,97212.78
2023-03-23T19:21:35.184Z,97219.28
2023-03-23T19:24:04.158Z,97224.16
2023-03-23T19:26:37.652Z,97227.72
2023-03-23T19:31:43.296Z,97240.53
2023-03-23T19:34:15.096Z,97239.94
2023-03-23T19:36:54.437Z,97235.91
2023-03-23T19:39:31.590Z,97245.00
2023-03-23T19:42:02.190Z,97257.44
2023-03-23T19:44:31.648Z,97268.81
2023-03-23T19:47:07.672Z,97272.16
2023-03-23T19:49:39.221Z,97269.75
2023-03-23T19:52:12.394Z,97272.44
2023-03-23T19:54:42.360Z,97272.47
2023-03-23T19:57:12.501Z,97282.41
2023-03-23T19:59:41.166Z,97297.28
2023-03-23T20:02:13.479Z,97289.09
2023-03-23T20:04:43.546Z,97294.06
2023-03-23T20:07:13.162Z,97310.13
2023-03-23T20:09:41.620Z,97313.69
2023-03-23T20:12:10.036Z,97314.31
2023-03-23T20:14:44.359Z,97321.34
2023-03-23T20:17:15.005Z,97320.97
2023-03-23T20:19:44.663Z,97334.59
2023-03-23T20:22:16.097Z,97331.50
2023-03-23T20:24:47.316Z,97332.16
2023-03-23T20:27:17.325Z,97344.13
2023-03-23T20:29:46.238Z,97345.59
2023-03-23T20:32:16.776Z,97355.72
2023-03-23T20:34:49.381Z,97357.78
2023-03-23T20:37:20.669Z,97360.88
2023-03-23T20:39:50.114Z,97361.50
2023-03-23T20:42:18.531Z,97366.47
2023-03-23T20:44:46.906Z,97370.56
2023-03-23T20:47:16.429Z,97349.13
2023-03-23T20:49:52.810Z,97358.81
2023-03-23T20:52:22.907Z,97364.81
2023-03-23T20:54:51.994Z,97369.34
2023-03-23T20:57:21.006Z,97365.88
2023-03-23T20:59:49.524Z,97370.63
2023-03-23T21:02:21.182Z,97365.25
2023-03-23T21:04:52.807Z,97380.16
2023-03-23T21:07:23.919Z,97386.31
2023-03-23T21:09:52.283Z,97396.81
2023-03-23T21:12:20.547Z,97402.41
2023-03-23T21:14:48.843Z,97411.28
2023-03-23T21:17:18.777Z,97413.97
2023-03-23T21:19:47.831Z,97423.25
2023-03-23T21:22:19.032Z,97422.66
2023-03-23T21:24:50.570Z,97424.91
2023-03-23T21:27:19.389Z,97416.88
2023-03-23T21:29:49.529Z,97415.22
2023-03-23T21:32:19.579Z,97416.06
2023-03-23T21:34:48.215Z,97416.28
2023-03-23T21:37:17.124Z,97412.97
2023-03-23T21:39:45.769Z,97398.97
2023-03-23T21:42:14.851Z,97416.50
2023-03-23T21:44:43.560Z,97413.41
2023-03-23T21:47:12.977Z,97409.47
2023-03-23T21:49:46.096Z,97417.50
2023-03-23T21:52:14.543Z,97414.22
2023-03-23T21:54:43.350Z,97425.97
2023-03-23T21:57:11.907Z,97427.22
2023-03-23T21:59:40.088Z,97428.88
2023-03-23T22:02:12.807Z,97431.13
2023-03-23T22:04:43.096Z,97451.13
2023-03-23T22:07:12.676Z,97446.56
2023-03-23T22:09:45.404Z,97456.47
2023-03-23T22:12:18.988Z,97454.19
2023-03-23T22:14:54.516Z,97457.50
2023-03-23T22:17:29.067Z,97455.44
2023-03-23T22:20:06.356Z,97453.19
2023-03-23T22:22:38.441Z,97458.75
2023-03-23T22:25:13.570Z,97461.84
2023-03-23T22:27:48.609Z,97467.81
2023-03-23T22:30:23.543Z,97472.34
2023-03-23T22:32:57.652Z,97466.78
2023-03-23T22:35:35.120Z,97470.28
2023-03-23T22:38:06.953Z,97470.69
2023-03-23T22:40:42.477Z,97480.59
2023-03-23T22:43:16.918Z,97491.47
2023-03-23T22:45:54.199Z,97485.31
2023-03-23T22:48:29.413Z,97486.75
2023-03-23T22:51:01.579Z,97492.50
2023-03-23T22:53:35.799Z,97487.38
2023-03-23T22:56:07.001Z,97492.72
2023-03-23T22:58:36.299Z,97495.38
2023-03-23T23:01:11.748Z,97493.72
2023-03-23T23:03:40.521Z,97493.94
2023-03-23T23:06:19.231Z,97493.75
2023-03-23T23:08:49.894Z,97500.53
2023-03-23T23:11:21.158Z,97496.84
2023-03-23T23:13:51.497Z,97503.41
2023-03-23T23:16:22.253Z,97504.03
2023-03-23T23:18:57.610Z,97504.63
2023-03-23T23:21:34.186Z,97504.63
2023-03-23T23:24:08.920Z,97513.31
2023-03-23T23:26:40.924Z,97520.72
2023-03-23T23:29:14.791Z,97525.03
2023-03-23T23:31:43.473Z,97526.28
2023-03-23T23:34:13.904Z,97524.84
2023-03-23T23:36:49.048Z,97541.72
2023-03-23T23:39:19.045Z,97547.91
2023-03-23T23:41:53.563Z,97551.19
2023-03-23T23:44:27.840Z,97539.88
2023-03-23T23:47:03.531Z,97550.97
2023-03-23T23:49:35.437Z,97546.25
2023-03-23T23:52:08.758Z,97552.63
2023-03-23T23:54:43.871Z,97535.69
2023-03-23T23:57:18.232Z,97539.66
2023-03-23T23:59:53.063Z,97540.25
